Time;durP1;ratioP1;P1;durP2;ratioP2;P2;SDS_P1;SDS_P2;PMS_P1;PMS_P2;Temp;Humidity;BMP_temperature;BMP_pressure;BME280_temperature;BME280_humidity;BME280_pressure;Samples;Min_cycle;Max_cycle;Signal;HPM_P1;HPM_P2
2023/12/24 00:14:24;;;;;;;0.32;0.30;;;7.90;99.90;;;;;;4880533;29;20113;-80
2023/12/24 00:16:50;;;;;;;0.25;0.20;;;7.90;99.90;;;;;;4979224;28;20027;-78
2023/12/24 00:19:21;;;;;;;0.20;0.20;;;8.00;99.90;;;;;;4979695;28;20039;-84
2023/12/24 00:21:50;;;;;;;0.20;0.20;;;9.20;99.90;;;;;;4959950;28;20035;-81
2023/12/24 00:24:17;;;;;;;0.77;0.20;;;7.90;99.90;;;;;;4946754;29;20046;-84
2023/12/24 00:26:43;;;;;;;0.30;0.30;;;7.90;99.90;;;;;;4978589;29;20024;-83
2023/12/24 00:29:09;;;;;;;0.30;0.30;;;7.90;99.90;;;;;;4978662;28;20046;-82
2023/12/24 00:31:36;;;;;;;0.68;0.30;;;7.90;99.90;;;;;;4960931;29;20059;-81
2023/12/24 00:34:02;;;;;;;0.20;0.20;;;7.90;99.90;;;;;;4944632;29;20023;-84
2023/12/24 00:36:28;;;;;;;0.17;0.17;;;7.90;99.90;;;;;;4974478;29;20027;-85
2023/12/24 00:39:05;;;;;;;2.40;0.30;;;7.90;99.90;;;;;;4977956;29;20051;-83
2023/12/24 00:41:46;;;;;;;0.80;0.30;;;7.90;99.90;;;;;;4961837;29;20047;-85
2023/12/24 00:44:31;;;;;;;0.30;0.30;;;7.90;99.90;;;;;;4977648;29;20019;-82
2023/12/24 00:46:57;;;;;;;1.80;0.20;;;7.90;99.90;;;;;;4975896;29;20040;-85
2023/12/24 00:49:25;;;;;;;0.45;0.45;;;7.90;99.90;;;;;;4961377;29;20031;-84
2023/12/24 00:51:53;;;;;;;1.67;0.32;;;7.90;99.90;;;;;;4955083;29;20038;-84
2023/12/24 00:54:18;;;;;;;0.10;0.10;;;7.90;99.90;;;;;;4974546;28;20033;-84
2023/12/24 00:56:44;;;;;;;0.20;0.20;;;7.90;99.90;;;;;;4955941;29;20039;-84
2023/12/24 00:59:10;;;;;;;0.20;0.20;;;7.90;99.90;;;;;;4962236;29;20031;-84
2023/12/24 01:01:36;;;;;;;0.35;0.35;;;7.90;99.90;;;;;;4980878;29;20035;-84
2023/12/24 01:04:01;;;;;;;0.32;0.32;;;7.90;99.90;;;;;;4947248;29;20031;-84
2023/12/24 01:06:27;;;;;;;0.10;0.10;;;7.90;99.90;;;;;;4978482;29;20137;-84
2023/12/24 01:11:41;;;;;;;0.10;0.10;;;7.90;99.90;;;;;;4915660;29;20353;-83
2023/12/24 01:14:07;;;;;;;0.10;0.10;;;7.90;99.90;;;;;;4964749;29;20318;-84
2023/12/24 01:16:32;;;;;;;0.10;0.10;;;7.80;99.90;;;;;;4976145;29;20023;-83
2023/12/24 01:18:58;;;;;;;0.00;0.00;;;7.80;99.90;;;;;;4953945;29;20054;-82
2023/12/24 01:21:24;;;;;;;0.17;0.17;;;7.70;99.90;;;;;;4970319;29;20035;-81
2023/12/24 01:23:49;;;;;;;0.13;0.13;;;7.70;99.90;;;;;;4976005;29;20464;-84
2023/12/24 01:26:15;;;;;;;0.15;0.13;;;7.80;99.90;;;;;;4957597;29;20476;-83
2023/12/24 01:32:32;;;;;;;0.20;0.15;;;7.80;99.90;;;;;;4976136;29;20124;-83
2023/12/24 01:35:08;;;;;;;0.43;0.20;;;7.80;99.90;;;;;;4922347;29;20032;-84
2023/12/24 01:37:33;;;;;;;0.38;0.10;;;7.80;99.90;;;;;;4941449;29;20059;-81
2023/12/24 01:39:59;;;;;;;0.20;0.10;;;7.70;99.90;;;;;;4953571;29;20168;-83
2023/12/24 01:42:25;;;;;;;0.05;0.05;;;7.70;99.90;;;;;;4952222;29;20091;-84
2023/12/24 01:44:50;;;;;;;0.13;0.13;;;7.80;99.90;;;;;;4952909;29;20517;-83
2023/12/24 01:47:23;;;;;;;0.00;0.00;;;7.80;99.90;;;;;;4951259;29;20036;-84
2023/12/24 01:49:55;;;;;;;0.13;0.13;;;7.80;99.90;;;;;;4928884;29;20060;-83
2023/12/24 01:52:21;;;;;;;0.20;0.20;;;7.80;99.90;;;;;;4929595;29;20091;-82
2023/12/24 01:54:49;;;;;;;0.47;0.22;;;7.80;99.90;;;;;;4948319;29;20020;-83
2023/12/24 01:57:24;;;;;;;0.20;0.20;;;7.80;99.90;;;;;;4945068;29;20048;-83
2023/12/24 01:59:51;;;;;;;0.30;0.30;;;7.80;99.90;;;;;;4933946;29;20039;-83
2023/12/24 02:02:18;;;;;;;0.20;0.20;;;7.80;99.90;;;;;;4931949;29;20027;-82
2023/12/24 02:04:44;;;;;;;0.20;0.20;;;7.80;99.90;;;;;;4947635;29;20429;-81
2023/12/24 02:07:11;;;;;;;0.95;0.30;;;7.80;99.90;;;;;;4968546;29;20100;-82
2023/12/24 02:09:37;;;;;;;0.25;0.15;;;7.80;99.90;;;;;;4956657;29;20038;-83
2023/12/24 02:12:04;;;;;;;0.20;0.20;;;7.80;99.90;;;;;;4967627;29;20118;-83
2023/12/24 02:14:30;;;;;;;0.22;0.20;;;7.80;99.90;;;;;;4966866;29;20019;-82
2023/12/24 02:16:58;;;;;;;0.32;0.30;;;7.70;99.90;;;;;;4970482;29;20023;-82
2023/12/24 02:19:25;;;;;;;0.20;0.20;;;7.70;99.90;;;;;;4963670;29;20035;-83
2023/12/24 02:21:51;;;;;;;0.20;0.20;;;7.60;99.90;;;;;;4948105;29;20027;-81
2023/12/24 02:24:17;;;;;;;0.20;0.20;;;7.60;99.90;;;;;;4946989;29;20035;-82
2023/12/24 02:26:52;;;;;;;0.20;0.20;;;7.60;99.90;;;;;;4961431;29;20500;-82
2023/12/24 02:29:27;;;;;;;0.20;0.20;;;7.50;99.90;;;;;;4960861;29;20039;-81
2023/12/24 02:32:00;;;;;;;0.28;0.20;;;7.60;99.90;;;;;;4945523;29;20036;-82
2023/12/24 02:34:29;;;;;;;0.20;0.20;;;7.70;99.90;;;;;;4963956;29;20098;-84
2023/12/24 02:37:44;;;;;;;;;;;;;;;;;;;;;
2023/12/24 02:43:48;;;;;;;0.50;0.15;;;7.80;99.90;;;;;;4874049;29;20064;-82
2023/12/24 02:46:14;;;;;;;0.68;0.28;;;7.80;99.90;;;;;;4903284;29;20126;-83
2023/12/24 02:52:18;;;;;;;0.45;0.45;;;7.90;99.90;;;;;;4873474;29;20406;-83
2023/12/24 02:54:44;;;;;;;0.32;0.20;;;7.90;99.90;;;;;;4961915;29;20058;-80
2023/12/24 02:57:10;;;;;;;0.13;0.10;;;8.00;99.90;;;;;;4949737;29;20031;-81
2023/12/24 02:59:35;;;;;;;1.17;0.20;;;8.00;99.90;;;;;;4955635;29;20023;-83
2023/12/24 03:02:01;;;;;;;0.10;0.10;;;8.00;99.90;;;;;;4972161;29;20031;-83
2023/12/24 03:04:27;;;;;;;0.10;0.10;;;8.00;99.90;;;;;;4970521;29;20027;-82
2023/12/24 03:06:52;;;;;;;0.32;0.20;;;8.00;99.90;;;;;;4969355;29;20031;-82
2023/12/24 03:09:18;;;;;;;0.10;0.10;;;8.00;99.90;;;;;;4948804;29;20028;-82
2023/12/24 03:11:44;;;;;;;0.15;0.15;;;8.10;99.90;;;;;;4950246;29;20034;-82
2023/12/24 03:14:10;;;;;;;0.47;0.20;;;8.00;99.90;;;;;;4966427;29;20031;-83
2023/12/24 03:16:35;;;;;;;0.00;0.00;;;8.00;99.90;;;;;;4949342;28;20046;-82
2023/12/24 03:19:01;;;;;;;0.10;0.10;;;8.10;99.90;;;;;;4967207;29;20033;-82
2023/12/24 03:21:26;;;;;;;0.20;0.20;;;8.10;99.90;;;;;;4971452;29;20031;-80
2023/12/24 03:23:52;;;;;;;0.10;0.10;;;8.10;99.90;;;;;;4954747;29;20054;-82
2023/12/24 03:26:22;;;;;;;0.10;0.10;;;8.10;99.90;;;;;;4935434;29;20166;-82
2023/12/24 03:28:48;;;;;;;0.15;0.15;;;8.10;99.90;;;;;;4954738;29;20031;-81
2023/12/24 03:31:14;;;;;;;0.10;0.10;;;8.20;99.90;;;;;;4968431;29;20015;-82
2023/12/24 03:33:40;;;;;;;0.20;0.20;;;8.20;99.90;;;;;;4953880;29;20051;-80
2023/12/24 03:36:07;;;;;;;0.10;0.10;;;8.10;99.90;;;;;;4955911;29;20051;-83
2023/12/24 03:38:34;;;;;;;0.30;0.30;;;8.10;99.90;;;;;;4955463;29;20027;-82
2023/12/24 03:41:00;;;;;;;0.20;0.20;;;8.10;99.90;;;;;;4947704;29;20031;-81
2023/12/24 03:43:25;;;;;;;0.20;0.20;;;8.10;99.90;;;;;;4952138;29;20010;-80
2023/12/24 03:45:51;;;;;;;1.75;0.20;;;8.10;99.90;;;;;;4954428;29;20164;-78
2023/12/24 03:48:17;;;;;;;0.28;0.28;;;8.10;99.90;;;;;;4956988;29;20035;-83
2023/12/24 03:50:43;;;;;;;0.10;0.10;;;8.20;99.90;;;;;;4974929;29;20042;-84
2023/12/24 03:53:09;;;;;;;0.88;0.20;;;8.20;99.90;;;;;;4974986;29;20027;-85
2023/12/24 03:55:34;;;;;;;0.25;0.22;;;8.20;99.90;;;;;;4959610;29;20031;-83
2023/12/24 03:58:01;;;;;;;0.10;0.10;;;8.20;99.90;;;;;;4976570;28;20047;-81
2023/12/24 04:00:27;;;;;;;0.35;0.30;;;8.20;99.90;;;;;;4960247;29;20019;-85
2023/12/24 04:02:55;;;;;;;0.20;0.20;;;8.20;99.90;;;;;;4961037;28;20103;-82
2023/12/24 04:05:21;;;;;;;0.20;0.20;;;8.10;99.90;;;;;;4975555;29;20019;-83
2023/12/24 04:07:47;;;;;;;0.10;0.10;;;8.20;99.90;;;;;;4959262;29;20427;-82
2023/12/24 04:10:13;;;;;;;0.13;0.10;;;8.20;99.90;;;;;;4959283;29;20023;-85
2023/12/24 04:12:40;;;;;;;0.03;0.03;;;8.30;99.90;;;;;;4959726;29;20039;-84
2023/12/24 04:15:07;;;;;;;0.10;0.10;;;8.30;99.90;;;;;;4961126;29;20018;-84
2023/12/24 04:17:37;;;;;;;0.10;0.10;;;8.30;99.90;;;;;;4977860;29;20026;-85
2023/12/24 04:20:04;;;;;;;0.20;0.20;;;8.30;99.90;;;;;;4975480;29;20019;-86
2023/12/24 04:22:33;;;;;;;0.20;0.20;;;8.30;99.90;;;;;;4978128;29;20058;-85
2023/12/24 04:24:59;;;;;;;0.10;0.10;;;8.30;99.90;;;;;;4976841;28;20023;-85
2023/12/24 04:27:25;;;;;;;0.13;0.13;;;8.30;99.90;;;;;;4958597;29;20035;-84
2023/12/24 04:29:53;;;;;;;0.20;0.20;;;8.40;99.90;;;;;;4955703;29;20087;-85
2023/12/24 04:33:07;;;;;;;0.75;0.20;;;8.40;99.90;;;;;;4955685;29;20067;-85
2023/12/24 04:35:32;;;;;;;0.47;0.10;;;8.40;99.90;;;;;;4947186;29;20100;-81
2023/12/24 04:37:59;;;;;;;0.15;0.10;;;8.40;99.90;;;;;;4951827;29;20044;-82
2023/12/24 04:40:25;;;;;;;0.10;0.10;;;8.40;99.90;;;;;;4935454;29;20028;-85
2023/12/24 04:43:44;;;;;;;0.10;0.10;;;8.30;99.90;;;;;;4938652;29;20035;-82
2023/12/24 04:46:09;;;;;;;0.10;0.10;;;8.40;99.90;;;;;;4936470;29;20042;-84
2023/12/24 04:48:35;;;;;;;0.63;0.17;;;8.40;99.90;;;;;;4936826;29;20040;-84
2023/12/24 04:54:04;;;;;;;0.00;0.00;;;8.40;99.90;;;;;;4937875;29;20074;-85
2023/12/24 04:56:31;;;;;;;0.28;0.28;;;8.50;99.90;;;;;;4935417;29;20040;-84
2023/12/24 05:09:21;;;;;;;0.15;0.15;;;8.50;99.90;;;;;;4937641;29;20050;-84
2023/12/24 05:11:47;;;;;;;0.10;0.10;;;8.50;99.90;;;;;;4936991;29;20028;-84
2023/12/24 05:14:12;;;;;;;0.10;0.10;;;8.50;99.90;;;;;;4937654;29;20073;-84
2023/12/24 05:16:38;;;;;;;0.10;0.10;;;8.50;99.90;;;;;;4937502;29;20024;-85
2023/12/24 05:19:04;;;;;;;0.25;0.10;;;8.50;99.90;;;;;;4935875;29;20393;-85
2023/12/24 05:21:30;;;;;;;0.00;0.00;;;8.50;99.90;;;;;;4937912;29;20036;-82
2023/12/24 05:23:57;;;;;;;0.20;0.20;;;8.40;99.90;;;;;;4936420;29;20119;-85
2023/12/24 05:26:26;;;;;;;0.00;0.00;;;8.50;99.90;;;;;;4936491;29;20046;-84
2023/12/24 05:28:52;;;;;;;0.00;0.00;;;8.50;99.90;;;;;;4937086;29;20025;-84
2023/12/24 05:31:18;;;;;;;0.00;0.00;;;8.50;99.90;;;;;;4936038;29;20272;-78
2023/12/24 05:33:44;;;;;;;0.10;0.10;;;8.50;99.90;;;;;;4936323;29;20024;-83
2023/12/24 05:36:15;;;;;;;1.52;0.20;;;8.50;99.90;;;;;;4936248;29;20044;-82
2023/12/24 05:38:41;;;;;;;1.45;0.10;;;8.50;99.90;;;;;;4959645;29;20050;-83
2023/12/24 05:41:12;;;;;;;0.10;0.10;;;8.50;99.90;;;;;;4959623;29;20031;-79
2023/12/24 05:43:38;;;;;;;0.00;0.00;;;8.60;99.90;;;;;;4961455;29;20042;-84
2023/12/24 05:46:10;;;;;;;0.10;0.10;;;8.60;99.90;;;;;;4958749;29;20511;-79
2023/12/24 05:48:36;;;;;;;0.10;0.10;;;8.60;99.90;;;;;;4962053;29;20027;-80
2023/12/24 05:51:02;;;;;;;0.10;0.10;;;8.60;99.90;;;;;;4960451;29;20096;-80
2023/12/24 05:53:27;;;;;;;0.10;0.10;;;8.60;99.90;;;;;;4957987;29;20031;-82
2023/12/24 05:55:54;;;;;;;0.32;0.10;;;8.60;99.90;;;;;;4958211;29;20043;-84
2023/12/24 05:58:21;;;;;;;0.20;0.05;;;8.60;99.90;;;;;;4959131;29;20035;-81
2023/12/24 06:00:47;;;;;;;0.10;0.10;;;8.50;99.90;;;;;;4959497;29;20051;-84
2023/12/24 06:03:13;;;;;;;0.43;0.25;;;8.60;99.90;;;;;;4961822;29;20027;-84
2023/12/24 06:05:39;;;;;;;0.20;0.20;;;8.50;99.90;;;;;;4960203;29;20091;-84
2023/12/24 06:08:05;;;;;;;0.05;0.05;;;8.60;99.90;;;;;;4958666;29;20043;-84
2023/12/24 06:10:31;;;;;;;0.25;0.20;;;8.60;99.90;;;;;;4975947;29;20027;-84
2023/12/24 06:13:04;;;;;;;0.20;0.20;;;8.60;99.90;;;;;;4960335;29;20027;-84
2023/12/24 06:21:43;;;;;;;0.20;0.20;;;8.50;99.90;;;;;;4979096;29;20376;-85
2023/12/24 06:37:36;;;;;;;0.20;0.20;;;8.60;99.90;;;;;;4920218;29;20104;-85
2023/12/24 06:50:11;;;;;;;1.00;0.10;;;8.60;99.90;;;;;;4793896;29;20043;-84
2023/12/24 06:52:37;;;;;;;0.15;0.15;;;8.60;99.90;;;;;;4844710;29;20030;-84
2023/12/24 06:55:03;;;;;;;0.20;0.20;;;8.50;99.90;;;;;;4901458;29;20037;-82
2023/12/24 06:57:29;;;;;;;0.10;0.10;;;8.60;99.90;;;;;;4917851;29;20015;-85
2023/12/24 06:59:55;;;;;;;1.23;0.25;;;8.60;99.90;;;;;;4977790;29;20014;-85
2023/12/24 07:06:30;;;;;;;0.20;0.20;;;8.50;99.90;;;;;;4890744;29;20058;-83
2023/12/24 07:12:23;;;;;;;0.30;0.30;;;8.40;99.90;;;;;;4894952;29;20069;-79
2023/12/24 07:18:11;;;;;;;0.20;0.20;;;8.50;99.90;;;;;;4977647;29;20042;-84
2023/12/24 07:28:00;;;;;;;0.98;0.30;;;8.60;99.90;;;;;;4839352;29;20071;-84
2023/12/24 07:30:26;;;;;;;0.50;0.30;;;8.50;99.90;;;;;;4841120;29;20043;-85
2023/12/24 07:33:31;;;;;;;0.30;0.30;;;8.60;99.90;;;;;;4874957;29;20105;-82
2023/12/24 07:36:25;;;;;;;;;;;;;;;;;;;;;
2023/12/24 07:38:51;;;;;;;0.32;0.32;;;8.60;99.90;;;;;;4879599;29;20060;-84
2023/12/24 07:41:17;;;;;;;2.45;0.68;;;8.70;99.90;;;;;;4929449;29;20035;-84
2023/12/24 07:43:43;;;;;;;0.28;0.28;;;8.70;99.90;;;;;;4975816;29;20030;-84
2023/12/24 07:46:10;;;;;;;0.60;0.60;;;8.60;99.90;;;;;;4975142;29;20263;-83
2023/12/24 07:48:35;;;;;;;0.77;0.60;;;8.60;99.90;;;;;;4974979;29;20076;-78
2023/12/24 07:51:02;;;;;;;1.10;0.20;;;8.50;99.90;;;;;;4956567;29;20050;-82
2023/12/24 07:53:28;;;;;;;0.20;0.20;;;8.50;99.90;;;;;;4968628;29;20038;-78
2023/12/24 07:55:54;;;;;;;1.27;1.17;;;8.60;99.90;;;;;;4978570;28;20016;-81
2023/12/24 07:58:19;;;;;;;1.55;1.25;;;8.60;99.90;;;;;;4955296;29;20050;-84
2023/12/24 08:00:45;;;;;;;0.82;0.35;;;8.70;99.90;;;;;;4955277;29;20022;-84
2023/12/24 08:06:18;;;;;;;0.30;0.30;;;8.60;99.90;;;;;;4976085;29;20038;-83
2023/12/24 08:08:45;;;;;;;1.10;1.00;;;8.60;99.90;;;;;;4975560;29;20361;-84
2023/12/24 08:11:10;;;;;;;0.52;0.50;;;8.60;99.90;;;;;;4956144;29;20023;-85
2023/12/24 08:13:36;;;;;;;1.10;0.70;;;8.60;99.90;;;;;;4956035;29;20034;-83
2023/12/24 08:16:08;;;;;;;0.50;0.38;;;8.70;99.90;;;;;;4976608;29;20051;-83
2023/12/24 08:18:57;;;;;;;0.75;0.70;;;8.70;99.90;;;;;;4960050;29;20030;-85
2023/12/24 08:24:59;;;;;;;0.40;0.40;;;8.70;99.90;;;;;;4887116;29;20109;-84
2023/12/24 08:28:20;;;;;;;0.50;0.45;;;8.80;99.90;;;;;;4958064;29;20043;-84
2023/12/24 08:30:46;;;;;;;0.40;0.40;;;8.80;99.90;;;;;;4957836;29;20031;-83
2023/12/24 08:36:11;;;;;;;0.38;0.30;;;8.90;99.90;;;;;;4969708;29;20050;-83
2023/12/24 08:38:37;;;;;;;0.45;0.30;;;9.00;99.90;;;;;;4939181;29;20032;-83
2023/12/24 08:51:12;;;;;;;0.20;0.20;;;9.20;99.90;;;;;;4895273;29;20054;-81
2023/12/24 09:04:03;;;;;;;1.45;0.30;;;9.50;99.90;;;;;;4824471;29;20530;-85
2023/12/24 09:12:54;;;;;;;0.50;0.50;;;9.80;99.90;;;;;;4812648;29;20042;-84
2023/12/24 09:18:04;;;;;;;1.02;0.95;;;9.90;99.90;;;;;;4905211;29;20082;-83
2023/12/24 09:20:29;;;;;;;0.85;0.20;;;10.00;99.90;;;;;;4945410;29;20027;-84
2023/12/24 09:22:55;;;;;;;0.20;0.20;;;10.10;99.90;;;;;;4926124;29;20049;-79
2023/12/24 09:25:21;;;;;;;0.30;0.30;;;10.30;99.90;;;;;;4919666;29;20173;-79
2023/12/24 09:31:10;;;;;;;0.20;0.20;;;10.60;99.90;;;;;;4857268;29;20062;-81
2023/12/24 09:33:35;;;;;;;0.10;0.10;;;10.80;99.90;;;;;;4933562;29;20020;-77
2023/12/24 09:37:08;;;;;;;;;;;;;;;;;;;;;
2023/12/24 09:42:19;;;;;;;0.45;0.35;;;10.80;99.90;;;;;;4867843;29;20078;-79
2023/12/24 09:44:45;;;;;;;0.50;0.30;;;10.80;99.90;;;;;;4889294;29;20037;-78
2023/12/24 09:50:48;;;;;;;0.20;0.20;;;10.50;99.90;;;;;;4889094;29;20288;-77
2023/12/24 09:53:52;;;;;;;0.30;0.30;;;10.50;99.90;;;;;;4906722;29;20032;-78
2023/12/24 10:04:22;;;;;;;0.30;0.30;;;10.50;99.90;;;;;;4705698;30;20043;-77
2023/12/24 10:07:25;;;;;;;0.47;0.47;;;10.60;99.90;;;;;;4722621;30;20224;-77
2023/12/24 11:42:02;;;;;;;;;;;;;;;;;;;;;
2023/12/24 13:35:45;;;;;;;0.10;0.10;;;11.00;99.90;;;;;;4774707;29;20474;-79
2023/12/24 13:41:57;;;;;;;0.10;0.10;;;10.90;99.90;;;;;;4790978;29;20033;-79
2023/12/24 13:48:24;;;;;;;0.20;0.20;;;10.90;99.90;;;;;;4817717;29;20561;-79
2023/12/24 15:42:15;;;;;;;0.40;0.40;;;11.60;99.30;;;;;;4660910;30;20069;-80
2023/12/24 18:46:46;;;;;;;0.20;0.20;;;12.80;68.10;;;;;;4743407;30;20539;-78
2023/12/24 19:56:18;;;;;;;0.55;0.22;;;12.30;71.50;;;;;;4657581;30;20117;-77
2023/12/24 20:34:48;;;;;;;0.60;0.60;;;12.10;68.90;;;;;;4722705;30;20518;-78
2023/12/24 22:01:49;;;;;;;;;;;;;;;;;;;;;
2023/12/24 22:21:49;;;;;;;1.17;0.30;;;12.40;66.50;;;;;;4841420;29;20100;-80
2023/12/24 22:35:11;;;;;;;1.25;0.68;;;12.30;66.20;;;;;;4801212;29;20105;-79
2023/12/24 22:37:37;;;;;;;0.40;0.38;;;12.40;65.80;;;;;;4794983;30;20055;-82
2023/12/24 22:40:04;;;;;;;0.45;0.20;;;12.40;64.90;;;;;;4772644;29;20047;-76
2023/12/24 22:42:30;;;;;;;0.20;0.20;;;12.50;65.40;;;;;;4825058;29;20038;-82
2023/12/24 22:44:57;;;;;;;1.65;0.45;;;12.40;66.30;;;;;;4865988;29;20041;-82
2023/12/24 22:47:23;;;;;;;0.55;0.32;;;12.30;65.30;;;;;;4883129;29;20068;-80
2023/12/24 22:49:49;;;;;;;1.23;0.20;;;11.60;64.80;;;;;;4883146;29;20565;-81
2023/12/24 22:52:15;;;;;;;0.40;0.40;;;12.30;65.30;;;;;;4887360;29;20033;-79
2023/12/24 22:54:41;;;;;;;0.20;0.20;;;12.50;65.20;;;;;;4887160;29;20166;-82
2023/12/24 22:57:48;;;;;;;0.88;0.20;;;12.30;63.40;;;;;;4879877;29;20028;-81
2023/12/24 23:00:26;;;;;;;0.50;0.50;;;12.30;63.90;;;;;;4828233;29;20049;-82
2023/12/24 23:02:52;;;;;;;0.10;0.10;;;12.40;63.10;;;;;;4835457;29;20054;-83
2023/12/24 23:05:29;;;;;;;0.32;0.32;;;12.30;62.70;;;;;;4870863;29;20037;-82
2023/12/24 23:07:55;;;;;;;2.42;0.40;;;12.40;62.80;;;;;;4883240;29;20037;-82
2023/12/24 23:10:22;;;;;;;0.55;0.32;;;12.40;62.40;;;;;;4867091;29;20057;-79
2023/12/24 23:12:49;;;;;;;2.47;0.43;;;12.40;63.40;;;;;;4866098;29;20032;-81
2023/12/24 23:15:15;;;;;;;0.45;0.30;;;12.40;64.10;;;;;;4882241;29;20021;-81
2023/12/24 23:17:41;;;;;;;0.32;0.32;;;12.30;63.40;;;;;;4880263;29;20108;-82
2023/12/24 23:20:07;;;;;;;0.60;0.60;;;12.30;64.10;;;;;;4860910;29;20524;-79
2023/12/24 23:22:34;;;;;;;0.35;0.30;;;12.30;65.80;;;;;;4863134;29;20306;-80
2023/12/24 23:24:59;;;;;;;0.20;0.20;;;12.20;66.10;;;;;;4901332;29;20024;-81
2023/12/24 23:27:26;;;;;;;0.63;0.35;;;12.10;65.60;;;;;;4902436;29;20035;-80
2023/12/24 23:29:52;;;;;;;0.30;0.28;;;12.00;66.00;;;;;;4895422;29;20047;-80
2023/12/24 23:32:18;;;;;;;0.73;0.30;;;12.00;65.40;;;;;;4896895;29;20032;-79
2023/12/24 23:34:44;;;;;;;0.50;0.30;;;12.00;66.20;;;;;;4896396;29;20039;-79
2023/12/24 23:37:15;;;;;;;0.30;0.30;;;11.90;66.40;;;;;;4896887;29;20021;-80
2023/12/24 23:39:41;;;;;;;0.45;0.30;;;11.90;66.20;;;;;;4905094;29;20021;-82
2023/12/24 23:42:07;;;;;;;0.55;0.40;;;11.90;64.70;;;;;;4890525;29;20028;-83
2023/12/24 23:44:33;;;;;;;0.13;0.13;;;11.90;65.00;;;;;;4900698;29;20033;-83
2023/12/24 23:46:58;;;;;;;0.30;0.25;;;12.00;65.40;;;;;;4902757;29;20028;-83
2023/12/24 23:49:40;;;;;;;2.70;0.40;;;11.90;66.40;;;;;;4905266;29;20044;-81
2023/12/24 23:52:35;;;;;;;5.20;0.63;;;11.90;65.70;;;;;;4893780;29;20029;-84
2023/12/24 23:55:19;;;;;;;1.00;0.40;;;11.90;65.70;;;;;;4898688;29;20033;-85
2023/12/24 23:57:45;;;;;;;0.40;0.40;;;11.90;65.90;;;;;;4895914;29;20092;-83
